createdAt,value
2022-10-22T00:00:09.717Z,21.8
2022-10-22T00:10:20.118Z,21.7
2022-10-22T00:20:23.041Z,21.7
2022-10-22T00:30:28.192Z,21.6
2022-10-22T00:40:35.753Z,21.7
2022-10-22T00:50:45.168Z,21.7
2022-10-22T01:00:39.580Z,21.7
2022-10-22T01:10:52.915Z,21.8
2022-10-22T01:20:52.494Z,21.9
2022-10-22T01:30:59.863Z,21.8
2022-10-22T01:41:01.514Z,21.6
2022-10-22T01:51:02.971Z,21.4
2022-10-22T02:01:12.069Z,21.1
2022-10-22T02:11:20.916Z,20.8
2022-10-22T02:21:29.966Z,20.7
2022-10-22T02:31:38.864Z,20.3
2022-10-22T02:41:47.682Z,20.4
2022-10-22T02:51:56.500Z,20.4
2022-10-22T03:02:05.424Z,20.2
2022-10-22T03:12:14.466Z,20.1
2022-10-22T03:22:23.510Z,20.1
2022-10-22T03:32:32.576Z,20.2
2022-10-22T03:42:41.551Z,20.3
2022-10-22T03:52:50.402Z,20.1
2022-10-22T04:02:59.265Z,20
2022-10-22T04:13:08.036Z,20.1
2022-10-22T04:23:17.010Z,19.7
2022-10-22T04:33:26.071Z,19.7
2022-10-22T04:43:34.974Z,19.6
2022-10-22T04:53:43.930Z,19.5
2022-10-22T05:03:52.807Z,19.4
2022-10-22T05:14:01.713Z,19.3
2022-10-22T05:24:10.515Z,19.4
2022-10-22T05:34:19.554Z,19.4
2022-10-22T05:44:28.477Z,19.2
2022-10-22T05:54:37.513Z,19.1
2022-10-22T06:04:42.023Z,19.2
2022-10-22T06:14:50.925Z,19.1
2022-10-22T06:25:25.253Z,19.3
2022-10-22T06:35:08.659Z,19.6
2022-10-22T06:45:17.690Z,19.7
2022-10-22T06:55:26.635Z,19.8
2022-10-22T07:05:26.856Z,20
2022-10-22T07:15:36.039Z,20.2
2022-10-22T07:25:47.388Z,20.2
2022-10-22T07:35:46.040Z,20.3
2022-10-22T07:46:00.345Z,20.2
2022-10-22T07:55:59.842Z,20.1
2022-10-22T08:06:08.682Z,20.3
2022-10-22T08:16:17.582Z,20.5
2022-10-22T08:26:26.545Z,20.9
2022-10-22T08:36:35.426Z,21.1
2022-10-22T08:46:44.282Z,21.4
2022-10-22T08:56:53.140Z,21.9
2022-10-22T09:07:01.930Z,22.1
2022-10-22T09:17:10.775Z,22.3
2022-10-22T09:27:19.697Z,22.6
2022-10-22T09:37:28.501Z,22.8
2022-10-22T09:47:43.060Z,22.8
2022-10-22T09:57:46.122Z,23.3
2022-10-22T10:07:54.843Z,23.9
2022-10-22T10:18:03.193Z,24
2022-10-22T10:28:12.185Z,24.5
2022-10-22T10:38:22.547Z,24.6
2022-10-22T10:48:28.611Z,24.9
2022-10-22T10:58:37.482Z,25.5
2022-10-22T11:08:46.450Z,26.3
2022-10-22T11:18:56.190Z,26.7
2022-10-22T11:29:05.114Z,27
2022-10-22T11:39:13.994Z,27.1
2022-10-22T11:59:25.345Z,27.5
2022-10-22T12:09:34.556Z,27.5
2022-10-22T12:19:35.502Z,27.2
2022-10-22T12:29:36.334Z,26.9
2022-10-22T12:39:37.021Z,27.1
2022-10-22T12:59:49.582Z,27.7
2022-10-22T13:30:00.757Z,27.3
2022-10-22T13:40:01.558Z,27.4
2022-10-22T13:50:09.610Z,27
2022-10-22T14:10:21.347Z,27
2022-10-22T14:20:30.263Z,26.9
2022-10-22T14:40:41.807Z,26.8
2022-10-22T15:10:56.225Z,26.6
2022-10-22T15:31:07.475Z,25.9
2022-10-22T15:41:16.358Z,25.8
2022-10-22T15:51:26.345Z,25.9
2022-10-22T16:01:35.317Z,25.7
2022-10-22T16:11:45.261Z,25.7
2022-10-22T16:21:53.626Z,25.7
2022-10-22T16:32:02.529Z,25.3
2022-10-22T16:42:11.292Z,25.1
2022-10-22T16:52:20.220Z,24.9
2022-10-22T17:02:29.481Z,24.8
2022-10-22T17:12:39.109Z,24.7
2022-10-22T17:22:39.099Z,24.7
2022-10-22T17:32:47.893Z,24.6
2022-10-22T17:42:56.772Z,24.5
2022-10-22T17:53:05.140Z,24.6
2022-10-22T18:03:05.626Z,24.5
2022-10-22T18:13:05.663Z,24.5
2022-10-22T18:23:14.825Z,24.2
2022-10-22T18:33:16.660Z,24
2022-10-22T18:43:21.807Z,24.1
2022-10-22T18:53:34.900Z,23.9
2022-10-22T19:03:45.126Z,23.6
2022-10-22T19:13:51.432Z,23.5
2022-10-22T19:24:02.012Z,23.3
2022-10-22T19:34:08.849Z,23
2022-10-22T19:44:09.597Z,22.8
2022-10-22T19:54:10.799Z,22.4
2022-10-22T20:04:20.041Z,22.5
2022-10-22T20:14:21.181Z,22.4
2022-10-22T20:24:20.801Z,22.4
2022-10-22T20:34:30.406Z,22.2
2022-10-22T20:44:30.356Z,22.3
2022-10-22T20:54:39.352Z,21.9
2022-10-22T21:04:40.551Z,21.8
2022-10-22T21:14:48.143Z,21.8
2022-10-22T21:24:49.784Z,21.5
2022-10-22T21:34:58.769Z,21.2
2022-10-22T21:45:10.547Z,21
2022-10-22T21:55:14.858Z,21
2022-10-22T22:05:23.886Z,21.2
2022-10-22T22:15:25.839Z,21.2
2022-10-22T22:25:35.165Z,21.2
2022-10-22T22:35:44.833Z,21.1
2022-10-22T22:45:53.864Z,20.8
2022-10-22T22:56:02.818Z,20.7
2022-10-22T23:06:15.113Z,20.9
2022-10-22T23:16:15.835Z,20.9
2022-10-22T23:26:24.872Z,20.8
2022-10-22T23:36:33.868Z,20.4
2022-10-22T23:46:42.823Z,20.3
2022-10-22T23:56:51.759Z,20.5
